sensor_id;sensor_type;location;lat;lon;timestamp;pressure;altitude;pressure_sealevel;temperature;humidity
13705;BME280;6924;52.122;9.952;2023-08-07T00:00:15;99586.91;;;15.49;100.00
13705;BME280;6924;52.122;9.952;2023-08-07T00:02:42;99584.16;;;15.53;100.00
13705;BME280;6924;52.122;9.952;2023-08-07T00:05:10;99589.84;;;15.53;100.00
13705;BME280;6924;52.122;9.952;2023-08-07T00:07:36;99591.28;;;15.43;100.00
13705;BME280;6924;52.122;9.952;2023-08-07T00:10:03;99596.06;;;15.39;100.00
13705;BME280;6924;52.122;9.952;2023-08-07T00:12:30;99589.97;;;15.41;100.00
13705;BME280;6924;52.122;9.952;2023-08-07T00:14:56;99592.91;;;15.44;100.00
13705;BME280;6924;52.122;9.952;2023-08-07T00:17:23;99589.50;;;15.39;100.00
13705;BME280;6924;52.122;9.952;2023-08-07T00:19:49;99595.13;;;15.35;100.00
13705;BME280;6924;52.122;9.952;2023-08-07T00:22:17;99591.09;;;15.36;100.00
13705;BME280;6924;52.122;9.952;2023-08-07T00:24:44;99588.78;;;15.42;100.00
13705;BME280;6924;52.122;9.952;2023-08-07T00:27:10;99587.50;;;15.39;100.00
13705;BME280;6924;52.122;9.952;2023-08-07T00:29:37;99596.97;;;15.27;100.00
13705;BME280;6924;52.122;9.952;2023-08-07T00:32:04;99602.41;;;15.33;100.00
13705;BME280;6924;52.122;9.952;2023-08-07T00:34:31;99599.94;;;15.31;100.00
13705;BME280;6924;52.122;9.952;2023-08-07T00:36:58;99603.59;;;15.32;100.00
13705;BME280;6924;52.122;9.952;2023-08-07T00:39:26;99604.81;;;15.31;100.00
13705;BME280;6924;52.122;9.952;2023-08-07T00:41:52;99600.59;;;15.24;100.00
13705;BME280;6924;52.122;9.952;2023-08-07T00:44:19;99607.91;;;15.25;100.00
13705;BME280;6924;52.122;9.952;2023-08-07T00:46:46;99605.63;;;15.31;100.00
13705;BME280;6924;52.122;9.952;2023-08-07T00:49:13;99612.28;;;15.19;100.00
13705;BME280;6924;52.122;9.952;2023-08-07T00:51:40;99603.25;;;15.17;100.00
13705;BME280;6924;52.122;9.952;2023-08-07T00:54:07;99613.38;;;15.15;100.00
13705;BME280;6924;52.122;9.952;2023-08-07T00:56:39;99609.06;;;15.05;100.00
13705;BME280;6924;52.122;9.952;2023-08-07T00:59:05;99600.59;;;15.08;100.00
13705;BME280;6924;52.122;9.952;2023-08-07T01:01:32;99605.22;;;14.97;100.00
13705;BME280;6924;52.122;9.952;2023-08-07T01:03:59;99603.25;;;14.85;100.00
13705;BME280;6924;52.122;9.952;2023-08-07T01:06:26;99610.81;;;14.94;100.00
13705;BME280;6924;52.122;9.952;2023-08-07T01:08:52;99613.47;;;15.02;100.00
13705;BME280;6924;52.122;9.952;2023-08-07T01:11:22;99618.16;;;15.11;100.00
13705;BME280;6924;52.122;9.952;2023-08-07T01:13:57;99609.03;;;15.21;100.00
13705;BME280;6924;52.122;9.952;2023-08-07T01:16:29;99608.56;;;15.19;100.00
13705;BME280;6924;52.122;9.952;2023-08-07T01:19:00;99612.81;;;15.09;100.00
13705;BME280;6924;52.122;9.952;2023-08-07T01:21:27;99624.09;;;15.05;100.00
13705;BME280;6924;52.122;9.952;2023-08-07T01:23:55;99617.22;;;15.06;100.00
13705;BME280;6924;52.122;9.952;2023-08-07T01:26:21;99614.66;;;15.17;100.00
13705;BME280;6924;52.122;9.952;2023-08-07T01:28:53;99616.22;;;15.15;100.00
13705;BME280;6924;52.122;9.952;2023-08-07T01:31:24;99616.00;;;15.23;100.00
13705;BME280;6924;52.122;9.952;2023-08-07T01:33:57;99609.97;;;15.09;100.00
13705;BME280;6924;52.122;9.952;2023-08-07T01:36:27;99610.78;;;15.09;100.00
13705;BME280;6924;52.122;9.952;2023-08-07T01:38:56;99615.47;;;15.18;100.00
13705;BME280;6924;52.122;9.952;2023-08-07T01:41:24;99607.75;;;15.18;100.00
13705;BME280;6924;52.122;9.952;2023-08-07T01:43:50;99613.91;;;15.20;100.00
13705;BME280;6924;52.122;9.952;2023-08-07T01:46:18;99615.94;;;15.20;100.00
13705;BME280;6924;52.122;9.952;2023-08-07T01:48:44;99618.78;;;15.20;100.00
13705;BME280;6924;52.122;9.952;2023-08-07T01:51:11;99607.47;;;15.07;100.00
13705;BME280;6924;52.122;9.952;2023-08-07T01:53:37;99612.28;;;15.19;100.00
13705;BME280;6924;52.122;9.952;2023-08-07T01:56:05;99614.75;;;15.05;100.00
13705;BME280;6924;52.122;9.952;2023-08-07T01:58:32;99615.22;;;15.07;100.00
13705;BME280;6924;52.122;9.952;2023-08-07T02:00:58;99607.22;;;15.13;100.00
13705;BME280;6924;52.122;9.952;2023-08-07T02:03:25;99615.03;;;15.16;100.00
13705;BME280;6924;52.122;9.952;2023-08-07T02:05:51;99618.81;;;15.04;100.00
13705;BME280;6924;52.122;9.952;2023-08-07T02:08:18;99615.66;;;15.09;100.00
13705;BME280;6924;52.122;9.952;2023-08-07T02:10:44;99620.16;;;14.94;100.00
13705;BME280;6924;52.122;9.952;2023-08-07T02:13:12;99614.03;;;15.08;100.00
13705;BME280;6924;52.122;9.952;2023-08-07T02:15:38;99612.72;;;15.05;100.00
13705;BME280;6924;52.122;9.952;2023-08-07T02:18:05;99611.44;;;15.03;100.00
13705;BME280;6924;52.122;9.952;2023-08-07T02:20:31;99606.84;;;14.98;100.00
13705;BME280;6924;52.122;9.952;2023-08-07T02:22:58;99613.47;;;15.02;100.00
13705;BME280;6924;52.122;9.952;2023-08-07T02:25:24;99610.00;;;14.93;100.00
13705;BME280;6924;52.122;9.952;2023-08-07T02:27:51;99615.69;;;14.93;100.00
13705;BME280;6924;52.122;9.952;2023-08-07T02:30:19;99618.25;;;14.98;100.00
13705;BME280;6924;52.122;9.952;2023-08-07T02:32:45;99609.69;;;14.98;100.00
13705;BME280;6924;52.122;9.952;2023-08-07T02:35:12;99612.19;;;15.00;100.00
13705;BME280;6924;52.122;9.952;2023-08-07T02:37:38;99606.38;;;14.96;100.00
13705;BME280;6924;52.122;9.952;2023-08-07T02:40:05;99607.31;;;14.84;100.00
13705;BME280;6924;52.122;9.952;2023-08-07T02:42:32;99607.03;;;14.90;100.00
13705;BME280;6924;52.122;9.952;2023-08-07T02:44:58;99610.97;;;14.85;100.00
13705;BME280;6924;52.122;9.952;2023-08-07T02:47:26;99608.25;;;14.88;100.00
13705;BME280;6924;52.122;9.952;2023-08-07T02:49:53;99604.94;;;14.86;100.00
13705;BME280;6924;52.122;9.952;2023-08-07T02:52:19;99606.50;;;14.84;100.00
13705;BME280;6924;52.122;9.952;2023-08-07T02:54:46;99590.31;;;14.72;100.00
13705;BME280;6924;52.122;9.952;2023-08-07T02:57:12;99608.13;;;14.69;100.00
13705;BME280;6924;52.122;9.952;2023-08-07T02:59:39;99611.91;;;14.73;100.00
13705;BME280;6924;52.122;9.952;2023-08-07T03:02:05;99607.41;;;14.72;100.00
13705;BME280;6924;52.122;9.952;2023-08-07T03:04:33;99608.31;;;14.76;100.00
13705;BME280;6924;52.122;9.952;2023-08-07T03:07:00;99609.13;;;14.77;100.00
13705;BME280;6924;52.122;9.952;2023-08-07T03:09:26;99613.19;;;14.76;100.00
13705;BME280;6924;52.122;9.952;2023-08-07T03:11:53;99604.09;;;14.70;100.00
13705;BME280;6924;52.122;9.952;2023-08-07T03:14:19;99614.47;;;14.62;100.00
13705;BME280;6924;52.122;9.952;2023-08-07T03:16:46;99605.28;;;14.69;100.00
13705;BME280;6924;52.122;9.952;2023-08-07T03:19:12;99611.06;;;14.73;100.00
13705;BME280;6924;52.122;9.952;2023-08-07T03:21:40;99617.22;;;14.75;100.00
13705;BME280;6924;52.122;9.952;2023-08-07T03:24:07;99612.56;;;14.66;100.00
13705;BME280;6924;52.122;9.952;2023-08-07T03:26:33;99617.03;;;14.67;100.00
13705;BME280;6924;52.122;9.952;2023-08-07T03:29:00;99620.81;;;14.72;100.00
13705;BME280;6924;52.122;9.952;2023-08-07T03:31:26;99629.16;;;14.64;100.00
13705;BME280;6924;52.122;9.952;2023-08-07T03:33:52;99623.16;;;14.54;100.00
13705;BME280;6924;52.122;9.952;2023-08-07T03:36:19;99621.97;;;14.55;100.00
13705;BME280;6924;52.122;9.952;2023-08-07T03:38:47;99625.16;;;14.53;100.00
13705;BME280;6924;52.122;9.952;2023-08-07T03:41:14;99624.91;;;14.58;100.00
13705;BME280;6924;52.122;9.952;2023-08-07T03:43:40;99629.66;;;14.54;100.00
13705;BME280;6924;52.122;9.952;2023-08-07T03:46:07;99628.97;;;14.57;100.00
13705;BME280;6924;52.122;9.952;2023-08-07T03:48:33;99635.56;;;14.61;100.00
13705;BME280;6924;52.122;9.952;2023-08-07T03:51:03;99641.19;;;14.58;100.00
13705;BME280;6924;52.122;9.952;2023-08-07T03:53:30;99638.78;;;14.60;100.00
13705;BME280;6924;52.122;9.952;2023-08-07T03:55:58;99637.50;;;14.57;100.00
13705;BME280;6924;52.122;9.952;2023-08-07T03:58:24;99643.63;;;14.59;100.00
13705;BME280;6924;52.122;9.952;2023-08-07T04:00:51;99636.09;;;14.51;100.00
13705;BME280;6924;52.122;9.952;2023-08-07T04:03:18;99646.47;;;14.59;100.00
13705;BME280;6924;52.122;9.952;2023-08-07T04:05:44;99640.34;;;14.57;100.00
13705;BME280;6924;52.122;9.952;2023-08-07T04:08:11;99644.88;;;14.46;100.00
13705;BME280;6924;52.122;9.952;2023-08-07T04:10:37;99641.16;;;14.30;100.00
13705;BME280;6924;52.122;9.952;2023-08-07T04:13:05;99647.16;;;14.40;100.00
13705;BME280;6924;52.122;9.952;2023-08-07T04:15:32;99650.94;;;14.44;100.00
13705;BME280;6924;52.122;9.952;2023-08-07T04:17:58;99655.06;;;14.47;100.00
13705;BME280;6924;52.122;9.952;2023-08-07T04:20:25;99655.19;;;14.22;100.00
13705;BME280;6924;52.122;9.952;2023-08-07T04:22:51;99651.44;;;14.34;100.00
13705;BME280;6924;52.122;9.952;2023-08-07T04:25:18;99655.50;;;14.33;100.00
13705;BME280;6924;52.122;9.952;2023-08-07T04:27:44;99654.66;;;14.33;100.00
13705;BME280;6924;52.122;9.952;2023-08-07T04:30:12;99659.53;;;14.32;100.00
13705;BME280;6924;52.122;9.952;2023-08-07T04:32:39;99666.56;;;14.22;100.00
13705;BME280;6924;52.122;9.952;2023-08-07T04:35:06;99662.25;;;14.29;100.00
13705;BME280;6924;52.122;9.952;2023-08-07T04:37:33;99666.72;;;14.42;100.00
13705;BME280;6924;52.122;9.952;2023-08-07T04:39:59;99671.31;;;14.46;100.00
13705;BME280;6924;52.122;9.952;2023-08-07T04:42:26;99660.94;;;14.54;100.00
13705;BME280;6924;52.122;9.952;2023-08-07T04:44:53;99672.47;;;14.58;100.00
13705;BME280;6924;52.122;9.952;2023-08-07T04:47:21;99667.13;;;14.56;100.00
13705;BME280;6924;52.122;9.952;2023-08-07T04:49:48;99668.91;;;14.61;100.00
13705;BME280;6924;52.122;9.952;2023-08-07T04:52:14;99673.75;;;14.60;100.00
13705;BME280;6924;52.122;9.952;2023-08-07T04:54:41;99676.34;;;14.65;100.00
13705;BME280;6924;52.122;9.952;2023-08-07T04:57:07;99674.06;;;14.71;100.00
13705;BME280;6924;52.122;9.952;2023-08-07T04:59:34;99690.88;;;14.76;100.00
13705;BME280;6924;52.122;9.952;2023-08-07T05:02:01;99687.19;;;14.76;100.00
13705;BME280;6924;52.122;9.952;2023-08-07T05:04:28;99685.44;;;14.71;100.00
13705;BME280;6924;52.122;9.952;2023-08-07T05:06:55;99677.44;;;14.77;100.00
13705;BME280;6924;52.122;9.952;2023-08-07T05:09:21;99685.28;;;14.80;100.00
13705;BME280;6924;52.122;9.952;2023-08-07T05:11:48;99684.06;;;14.81;100.00
13705;BME280;6924;52.122;9.952;2023-08-07T05:14:14;99679.47;;;14.76;100.00
13705;BME280;6924;52.122;9.952;2023-08-07T05:16:41;99680.69;;;14.75;100.00
13705;BME280;6924;52.122;9.952;2023-08-07T05:19:07;99688.03;;;14.76;100.00
13705;BME280;6924;52.122;9.952;2023-08-07T05:21:35;99687.31;;;14.79;100.00
13705;BME280;6924;52.122;9.952;2023-08-07T05:24:02;99691.50;;;14.70;100.00
13705;BME280;6924;52.122;9.952;2023-08-07T05:26:28;99694.34;;;14.70;100.00
13705;BME280;6924;52.122;9.952;2023-08-07T05:28:55;99698.13;;;14.74;100.00
13705;BME280;6924;52.122;9.952;2023-08-07T05:31:23;99700.97;;;14.74;100.00
13705;BME280;6924;52.122;9.952;2023-08-07T05:33:50;99707.25;;;14.79;100.00
13705;BME280;6924;52.122;9.952;2023-08-07T05:36:16;99701.13;;;14.65;100.00
13705;BME280;6924;52.122;9.952;2023-08-07T05:38:44;99708.84;;;14.64;100.00
13705;BME280;6924;52.122;9.952;2023-08-07T05:41:10;99712.88;;;14.63;100.00
13705;BME280;6924;52.122;9.952;2023-08-07T05:43:37;99715.03;;;14.54;100.00
13705;BME280;6924;52.122;9.952;2023-08-07T05:46:03;99706.81;;;14.65;100.00
13705;BME280;6924;52.122;9.952;2023-08-07T05:48:30;99721.88;;;14.65;100.00
13705;BME280;6924;52.122;9.952;2023-08-07T05:50:56;99713.72;;;14.64;100.00
13705;BME280;6924;52.122;9.952;2023-08-07T05:53:23;99722.50;;;14.59;100.00
13705;BME280;6924;52.122;9.952;2023-08-07T05:55:50;99709.78;;;14.69;100.00
13705;BME280;6924;52.122;9.952;2023-08-07T05:58:17;99722.81;;;14.70;100.00
13705;BME280;6924;52.122;9.952;2023-08-07T06:00:44;99717.22;;;14.73;100.00
13705;BME280;6924;52.122;9.952;2023-08-07T06:03:11;99715.03;;;14.82;100.00
13705;BME280;6924;52.122;9.952;2023-08-07T06:05:37;99725.03;;;14.76;100.00
13705;BME280;6924;52.122;9.952;2023-08-07T06:08:04;99723.84;;;14.77;100.00
13705;BME280;6924;52.122;9.952;2023-08-07T06:10:31;99723.13;;;14.80;100.00
13705;BME280;6924;52.122;9.952;2023-08-07T06:12:58;99721.19;;;14.84;100.00
13705;BME280;6924;52.122;9.952;2023-08-07T06:15:25;99723.56;;;14.82;100.00
13705;BME280;6924;52.122;9.952;2023-08-07T06:17:52;99721.00;;;14.77;100.00
13705;BME280;6924;52.122;9.952;2023-08-07T06:20:18;99716.13;;;14.78;100.00
13705;BME280;6924;52.122;9.952;2023-08-07T06:22:46;99712.72;;;14.88;100.00
13705;BME280;6924;52.122;9.952;2023-08-07T06:25:13;99722.31;;;14.96;100.00
13705;BME280;6924;52.122;9.952;2023-08-07T06:27:39;99719.19;;;15.01;100.00
13705;BME280;6924;52.122;9.952;2023-08-07T06:30:08;99727.03;;;15.04;100.00
13705;BME280;6924;52.122;9.952;2023-08-07T06:32:35;99724.47;;;15.15;100.00
13705;BME280;6924;52.122;9.952;2023-08-07T06:35:02;99723.16;;;15.12;100.00
13705;BME280;6924;52.122;9.952;2023-08-07T06:37:29;99733.19;;;15.06;100.00
13705;BME280;6924;52.122;9.952;2023-08-07T06:39:56;99731.16;;;15.06;100.00
13705;BME280;6924;52.122;9.952;2023-08-07T06:42:22;99728.47;;;14.98;100.00
13705;BME280;6924;52.122;9.952;2023-08-07T06:44:49;99733.88;;;15.03;100.00
13705;BME280;6924;52.122;9.952;2023-08-07T06:47:17;99728.84;;;15.12;100.00
13705;BME280;6924;52.122;9.952;2023-08-07T06:49:43;99741.78;;;15.09;100.00
13705;BME280;6924;52.122;9.952;2023-08-07T06:52:10;99737.13;;;15.17;100.00
13705;BME280;6924;52.122;9.952;2023-08-07T06:54:36;99739.72;;;15.22;100.00
13705;BME280;6924;52.122;9.952;2023-08-07T06:57:03;99738.31;;;15.16;100.00
13705;BME280;6924;52.122;9.952;2023-08-07T06:59:30;99746.84;;;15.16;100.00
13705;BME280;6924;52.122;9.952;2023-08-07T07:01:57;99747.31;;;15.18;100.00
13705;BME280;6924;52.122;9.952;2023-08-07T07:04:25;99748.72;;;15.24;100.00
13705;BME280;6924;52.122;9.952;2023-08-07T07:06:51;99749.34;;;15.18;100.00
13705;BME280;6924;52.122;9.952;2023-08-07T07:09:18;99745.69;;;15.17;100.00
13705;BME280;6924;52.122;9.952;2023-08-07T07:11:44;99748.81;;;15.28;100.00
13705;BME280;6924;52.122;9.952;2023-08-07T07:14:11;99744.59;;;15.22;100.00
13705;BME280;6924;52.122;9.952;2023-08-07T07:16:37;99750.09;;;15.15;100.00
13705;BME280;6924;52.122;9.952;2023-08-07T07:19:04;99754.00;;;15.10;100.00
13705;BME280;6924;52.122;9.952;2023-08-07T07:21:33;99755.16;;;15.21;100.00
13705;BME280;6924;52.122;9.952;2023-08-07T07:24:00;99754.22;;;15.17;100.00
13705;BME280;6924;52.122;9.952;2023-08-07T07:26:27;99757.84;;;15.30;100.00
13705;BME280;6924;52.122;9.952;2023-08-07T07:28:53;99747.16;;;15.27;100.00
13705;BME280;6924;52.122;9.952;2023-08-07T07:31:20;99757.09;;;15.33;100.00
13705;BME280;6924;52.122;9.952;2023-08-07T07:33:47;99756.53;;;15.43;100.00
13705;BME280;6924;52.122;9.952;2023-08-07T07:36:15;99759.00;;;15.45;100.00
13705;BME280;6924;52.122;9.952;2023-08-07T07:38:43;99766.09;;;15.51;100.00
13705;BME280;6924;52.122;9.952;2023-08-07T07:41:09;99766.56;;;15.53;100.00
13705;BME280;6924;52.122;9.952;2023-08-07T07:43:36;99774.09;;;15.61;100.00
13705;BME280;6924;52.122;9.952;2023-08-07T07:46:03;99763.25;;;15.51;100.00
13705;BME280;6924;52.122;9.952;2023-08-07T07:48:29;99773.34;;;15.64;100.00
13705;BME280;6924;52.122;9.952;2023-08-07T07:50:58;99773.44;;;15.68;100.00
13705;BME280;6924;52.122;9.952;2023-08-07T07:53:24;99774.47;;;15.76;100.00
13705;BME280;6924;52.122;9.952;2023-08-07T07:55:52;99785.81;;;15.72;100.00
13705;BME280;6924;52.122;9.952;2023-08-07T07:58:19;99782.81;;;15.68;100.00
13705;BME280;6924;52.122;9.952;2023-08-07T08:00:46;99784.25;;;15.75;100.00
13705;BME280;6924;52.122;9.952;2023-08-07T08:03:13;99785.22;;;15.66;100.00
13705;BME280;6924;52.122;9.952;2023-08-07T08:05:39;99790.91;;;15.66;100.00
13705;BME280;6924;52.122;9.952;2023-08-07T08:08:06;99791.97;;;15.74;100.00
13705;BME280;6924;52.122;9.952;2023-08-07T08:10:33;99794.22;;;15.68;100.00
13705;BME280;6924;52.122;9.952;2023-08-07T08:13:01;99805.00;;;15.75;100.00
13705;BME280;6924;52.122;9.952;2023-08-07T08:15:29;99798.22;;;15.80;100.00
13705;BME280;6924;52.122;9.952;2023-08-07T08:17:55;99798.56;;;15.94;100.00
13705;BME280;6924;52.122;9.952;2023-08-07T08:20:22;99797.38;;;15.95;100.00
13705;BME280;6924;52.122;9.952;2023-08-07T08:22:48;99794.88;;;15.94;100.00
13705;BME280;6924;52.122;9.952;2023-08-07T08:25:15;99787.13;;;16.10;100.00
13705;BME280;6924;52.122;9.952;2023-08-07T08:27:43;99796.31;;;16.19;100.00
13705;BME280;6924;52.122;9.952;2023-08-07T08:30:12;99793.91;;;16.21;100.00
13705;BME280;6924;52.122;9.952;2023-08-07T08:32:39;99809.66;;;16.15;100.00
13705;BME280;6924;52.122;9.952;2023-08-07T08:35:06;99806.59;;;16.24;100.00
13705;BME280;6924;52.122;9.952;2023-08-07T08:37:32;99823.06;;;16.30;100.00
13705;BME280;6924;52.122;9.952;2023-08-07T08:39:59;99819.69;;;16.25;100.00
13705;BME280;6924;52.122;9.952;2023-08-07T08:42:26;99810.66;;;16.23;100.00
13705;BME280;6924;52.122;9.952;2023-08-07T08:44:55;99821.16;;;16.19;100.00
13705;BME280;6924;52.122;9.952;2023-08-07T08:47:25;99818.38;;;16.22;100.00
13705;BME280;6924;52.122;9.952;2023-08-07T08:49:55;99826.94;;;16.22;100.00
13705;BME280;6924;52.122;9.952;2023-08-07T08:52:24;99829.53;;;16.27;100.00
13705;BME280;6924;52.122;9.952;2023-08-07T08:54:51;99833.41;;;16.19;100.00
13705;BME280;6924;52.122;9.952;2023-08-07T08:57:18;99832.22;;;16.04;100.00
13705;BME280;6924;52.122;9.952;2023-08-07T08:59:45;99847.75;;;16.07;100.00
13705;BME280;6924;52.122;9.952;2023-08-07T09:02:12;99846.22;;;16.09;100.00
13705;BME280;6924;52.122;9.952;2023-08-07T09:04:40;99836.00;;;16.08;100.00
13705;BME280;6924;52.122;9.952;2023-08-07T09:07:07;99837.56;;;16.06;100.00
13705;BME280;6924;52.122;9.952;2023-08-07T09:09:34;99851.00;;;16.05;100.00
13705;BME280;6924;52.122;9.952;2023-08-07T09:12:02;99847.88;;;15.95;100.00
13705;BME280;6924;52.122;9.952;2023-08-07T09:14:30;99840.03;;;15.91;100.00
13705;BME280;6924;52.122;9.952;2023-08-07T09:17:00;99852.00;;;15.97;100.00
13705;BME280;6924;52.122;9.952;2023-08-07T09:19:28;99847.59;;;16.00;100.00
13705;BME280;6924;52.122;9.952;2023-08-07T09:21:56;99847.22;;;16.01;100.00
13705;BME280;6924;52.122;9.952;2023-08-07T09:24:22;99849.25;;;16.01;100.00
13705;BME280;6924;52.122;9.952;2023-08-07T09:26:51;99852.66;;;16.06;100.00
13705;BME280;6924;52.122;9.952;2023-08-07T09:29:18;99855.31;;;15.99;100.00
13705;BME280;6924;52.122;9.952;2023-08-07T09:31:44;99853.75;;;15.86;100.00
13705;BME280;6924;52.122;9.952;2023-08-07T09:34:11;99849.16;;;15.97;100.00
13705;BME280;6924;52.122;9.952;2023-08-07T09:36:39;99841.88;;;16.00;100.00
13705;BME280;6924;52.122;9.952;2023-08-07T09:39:08;99864.69;;;16.00;100.00
13705;BME280;6924;52.122;9.952;2023-08-07T09:41:36;99860.00;;;15.91;100.00
13705;BME280;6924;52.122;9.952;2023-08-07T09:44:06;99881.00;;;15.99;100.00
13705;BME280;6924;52.122;9.952;2023-08-07T09:46:40;99881.19;;;15.75;100.00
13705;BME280;6924;52.122;9.952;2023-08-07T09:49:07;99891.38;;;15.76;100.00
13705;BME280;6924;52.122;9.952;2023-08-07T09:51:41;99897.50;;;15.62;100.00
13705;BME280;6924;52.122;9.952;2023-08-07T09:54:09;99890.03;;;15.57;100.00
13705;BME280;6924;52.122;9.952;2023-08-07T09:56:37;99893.72;;;15.58;100.00
13705;BME280;6924;52.122;9.952;2023-08-07T09:59:04;99890.50;;;15.59;100.00
13705;BME280;6924;52.122;9.952;2023-08-07T10:01:31;99894.16;;;15.72;100.00
13705;BME280;6924;52.122;9.952;2023-08-07T10:03:58;99890.56;;;15.91;100.00
13705;BME280;6924;52.122;9.952;2023-08-07T10:06:25;99878.78;;;16.08;100.00
13705;BME280;6924;52.122;9.952;2023-08-07T10:08:52;99880.59;;;16.32;100.00
13705;BME280;6924;52.122;9.952;2023-08-07T10:11:22;99889.41;;;16.43;100.00
13705;BME280;6924;52.122;9.952;2023-08-07T10:13:50;99888.66;;;16.46;100.00
13705;BME280;6924;52.122;9.952;2023-08-07T10:16:16;99882.91;;;16.62;100.00
13705;BME280;6924;52.122;9.952;2023-08-07T10:18:43;99884.22;;;16.65;100.00
13705;BME280;6924;52.122;9.952;2023-08-07T10:21:10;99897.38;;;16.69;100.00
13705;BME280;6924;52.122;9.952;2023-08-07T10:23:38;99885.34;;;16.60;100.00
13705;BME280;6924;52.122;9.952;2023-08-07T10:26:08;99895.25;;;16.66;100.00
13705;BME280;6924;52.122;9.952;2023-08-07T10:28:39;99910.56;;;16.58;100.00
13705;BME280;6924;52.122;9.952;2023-08-07T10:31:07;99916.75;;;16.44;100.00
13705;BME280;6924;52.122;9.952;2023-08-07T10:33:35;99910.16;;;16.24;100.00
13705;BME280;6924;52.122;9.952;2023-08-07T10:36:08;99910.97;;;16.09;100.00
13705;BME280;6924;52.122;9.952;2023-08-07T10:38:35;99916.69;;;15.93;100.00
13705;BME280;6924;52.122;9.952;2023-08-07T10:41:06;99918.00;;;15.67;100.00
13705;BME280;6924;52.122;9.952;2023-08-07T10:43:38;99918.53;;;15.57;100.00
13705;BME280;6924;52.122;9.952;2023-08-07T10:46:06;99910.00;;;15.57;100.00
13705;BME280;6924;52.122;9.952;2023-08-07T10:48:43;99925.38;;;15.68;100.00
13705;BME280;6924;52.122;9.952;2023-08-07T10:51:12;99919.81;;;15.72;100.00
13705;BME280;6924;52.122;9.952;2023-08-07T10:53:41;99922.31;;;15.61;100.00
13705;BME280;6924;52.122;9.952;2023-08-07T10:56:11;99929.41;;;15.67;100.00
13705;BME280;6924;52.122;9.952;2023-08-07T10:58:40;99938.38;;;15.82;100.00
13705;BME280;6924;52.122;9.952;2023-08-07T11:01:20;99950.09;;;15.64;100.00
13705;BME280;6924;52.122;9.952;2023-08-07T11:03:49;99951.56;;;15.30;100.00
13705;BME280;6924;52.122;9.952;2023-08-07T11:06:16;99939.63;;;15.12;100.00
13705;BME280;6924;52.122;9.952;2023-08-07T11:08:43;99941.44;;;14.92;100.00
13705;BME280;6924;52.122;9.952;2023-08-07T11:11:09;99946.78;;;14.94;100.00
13705;BME280;6924;52.122;9.952;2023-08-07T11:13:36;99932.06;;;15.04;100.00
13705;BME280;6924;52.122;9.952;2023-08-07T11:16:04;99940.81;;;15.11;100.00
13705;BME280;6924;52.122;9.952;2023-08-07T11:18:31;99940.06;;;15.26;100.00
13705;BME280;6924;52.122;9.952;2023-08-07T11:20:58;99946.94;;;15.25;100.00
13705;BME280;6924;52.122;9.952;2023-08-07T11:23:27;99936.75;;;15.24;100.00
13705;BME280;6924;52.122;9.952;2023-08-07T11:25:54;99934.47;;;15.30;100.00
13705;BME280;6924;52.122;9.952;2023-08-07T11:28:22;99934.47;;;15.30;100.00
13705;BME280;6924;52.122;9.952;2023-08-07T11:30:49;99933.31;;;15.47;100.00
13705;BME280;6924;52.122;9.952;2023-08-07T11:33:19;99929.78;;;15.66;100.00
13705;BME280;6924;52.122;9.952;2023-08-07T11:35:46;99932.38;;;15.71;100.00
13705;BME280;6924;52.122;9.952;2023-08-07T11:38:12;99928.63;;;15.83;100.00
13705;BME280;6924;52.122;9.952;2023-08-07T11:40:39;99915.88;;;15.93;100.00
13705;BME280;6924;52.122;9.952;2023-08-07T11:43:06;99912.38;;;15.99;100.00
13705;BME280;6924;52.122;9.952;2023-08-07T11:45:32;99915.97;;;16.12;100.00
13705;BME280;6924;52.122;9.952;2023-08-07T11:47:59;99917.88;;;16.40;100.00
13705;BME280;6924;52.122;9.952;2023-08-07T11:50:28;99914.09;;;16.51;100.00
13705;BME280;6924;52.122;9.952;2023-08-07T11:52:55;99920.69;;;16.56;100.00
13705;BME280;6924;52.122;9.952;2023-08-07T11:55:28;99927.13;;;16.68;100.00
13705;BME280;6924;52.122;9.952;2023-08-07T11:57:54;99927.84;;;16.81;99.82
13705;BME280;6924;52.122;9.952;2023-08-07T12:00:24;99927.09;;;16.84;93.50
13705;BME280;6924;52.122;9.952;2023-08-07T12:02:53;99917.28;;;17.01;93.86
13705;BME280;6924;52.122;9.952;2023-08-07T12:05:19;99917.75;;;17.03;95.66
13705;BME280;6924;52.122;9.952;2023-08-07T12:07:48;99917.50;;;16.92;91.95
13705;BME280;6924;52.122;9.952;2023-08-07T12:10:15;99937.50;;;16.77;91.46
13705;BME280;6924;52.122;9.952;2023-08-07T12:12:42;99932.81;;;16.68;89.28
13705;BME280;6924;52.122;9.952;2023-08-07T12:15:10;99946.56;;;16.63;86.56
13705;BME280;6924;52.122;9.952;2023-08-07T12:17:36;99941.38;;;16.68;90.72
13705;BME280;6924;52.122;9.952;2023-08-07T12:20:04;99958.66;;;16.56;85.53
13705;BME280;6924;52.122;9.952;2023-08-07T12:22:32;99983.78;;;16.35;80.98
13705;BME280;6924;52.122;9.952;2023-08-07T12:25:00;99970.34;;;16.19;82.30
13705;BME280;6924;52.122;9.952;2023-08-07T12:27:27;99978.50;;;16.05;82.21
13705;BME280;6924;52.122;9.952;2023-08-07T12:29:54;99981.38;;;16.05;82.99
13705;BME280;6924;52.122;9.952;2023-08-07T12:32:20;99972.66;;;16.29;86.32
13705;BME280;6924;52.122;9.952;2023-08-07T12:34:46;99973.00;;;16.44;87.92
13705;BME280;6924;52.122;9.952;2023-08-07T12:37:15;99982.22;;;16.53;86.21
13705;BME280;6924;52.122;9.952;2023-08-07T12:39:41;99969.88;;;16.65;87.13
13705;BME280;6924;52.122;9.952;2023-08-07T12:42:09;99992.50;;;16.58;81.54
13705;BME280;6924;52.122;9.952;2023-08-07T12:44:36;99986.16;;;16.64;82.92
13705;BME280;6924;52.122;9.952;2023-08-07T12:47:02;99987.06;;;16.68;87.15
13705;BME280;6924;52.122;9.952;2023-08-07T12:49:29;99981.81;;;16.86;83.96
13705;BME280;6924;52.122;9.952;2023-08-07T12:51:55;99985.69;;;16.94;83.24
13705;BME280;6924;52.122;9.952;2023-08-07T12:54:23;99970.19;;;16.95;84.11
13705;BME280;6924;52.122;9.952;2023-08-07T12:56:49;100010.03;;;16.88;84.12
13705;BME280;6924;52.122;9.952;2023-08-07T12:59:17;100030.84;;;16.25;93.25